TimeEDT,TemperatureF,Dew PointF,Humidity,Sea Level PressureIn,VisibilityMPH,Wind Direction,Wind SpeedMPH,Gust SpeedMPH,PrecipitationIn,Events,Conditions,WindDirDegrees,DateUTC
12:58 AM,74.1,67.3,79,29.84,10.0,ESE,3.5,-,N/A,,Clear,120,2013-08-31 04:58:00
1:58 AM,74.8,68.0,79,29.83,10.0,SE,4.6,-,N/A,,Scattered Clouds,140,2013-08-31 05:58:00
2:58 AM,74.7,68.0,80,29.81,10.0,SE,4.6,-,N/A,,Clear,140,2013-08-31 06:58:00
3:16 AM,73.4,68.0,83,29.83,10.0,ESE,4.6,-,N/A,Thunderstorm,Thunderstorm,110,2013-08-31 07:16:00
3:30 AM,75.2,68.0,78,29.84,10.0,NW,15.0,21.9,N/A,Rain-Thunderstorm,Light Thunderstorms and Rain,310,2013-08-31 07:30:00
3:40 AM,73.4,69.8,88,29.82,8.0,Variable,4.6,-,N/A,Rain-Thunderstorm,Light Thunderstorms and Rain,0,2013-08-31 07:40:00
3:43 AM,75.2,69.8,83,29.83,10.0,SW,5.8,-,N/A,Thunderstorm,Thunderstorm,220,2013-08-31 07:43:00
3:58 AM,74.5,69.6,85,29.82,10.0,SSE,3.5,-,0.00,Thunderstorm,Thunderstorm,160,2013-08-31 07:58:00
4:00 AM,75.2,69.8,83,29.83,10.0,Variable,3.5,-,N/A,Thunderstorm,Mostly Cloudy,0,2013-08-31 08:00:00
4:10 AM,75.2,69.8,83,29.83,10.0,NE,6.9,-,N/A,Rain-Thunderstorm,Light Rain,40,2013-08-31 08:10:00
4:17 AM,73.4,71.6,94,29.84,10.0,Variable,1.2,-,N/A,Thunderstorm,Mostly Cloudy,0,2013-08-31 08:17:00
4:25 AM,73.4,69.8,88,29.83,10.0,Variable,4.6,-,N/A,Thunderstorm,Mostly Cloudy,0,2013-08-31 08:25:00
4:40 AM,75.2,69.8,83,29.82,10.0,SE,2.3,-,N/A,,Mostly Cloudy,140,2013-08-31 08:40:00
4:58 AM,73.2,69.8,89,29.82,10.0,North,3.5,-,N/A,,Scattered Clouds,10,2013-08-31 08:58:00
5:58 AM,72.5,69.4,90,29.84,10.0,East,1.2,-,N/A,,Mostly Cloudy,80,2013-08-31 09:58:00
6:58 AM,71.1,68.4,91,29.84,10.0,South,5.8,-,N/A,,Mostly Cloudy,180,2013-08-31 10:58:00
7:58 AM,70.9,68.0,91,29.84,10.0,Calm,Calm,-,N/A,,Partly Cloudy,0,2013-08-31 11:58:00
8:58 AM,75.6,70.0,83,29.86,10.0,SSE,8.1,-,N/A,,Clear,160,2013-08-31 12:58:00
9:58 AM,77.5,69.8,77,29.87,10.0,Variable,3.5,-,N/A,,Clear,0,2013-08-31 13:58:00
10:04 AM,78.8,69.8,74,29.86,10.0,South,3.5,-,N/A,,Scattered Clouds,190,2013-08-31 14:04:00
10:07 AM,78.8,69.8,74,29.87,10.0,SW,4.6,-,N/A,,Partly Cloudy,230,2013-08-31 14:07:00
10:58 AM,78.6,69.6,74,29.86,10.0,WSW,5.8,-,0.00,,Scattered Clouds,240,2013-08-31 14:58:00
11:58 AM,82.2,69.4,65,29.86,10.0,SW,8.1,-,N/A,,Scattered Clouds,220,2013-08-31 15:58:00
12:58 PM,86.5,68.2,54,29.85,10.0,SSW,9.2,-,N/A,,Scattered Clouds,210,2013-08-31 16:58:00
1:58 PM,89.2,68.0,49,29.84,10.0,South,8.1,-,N/A,,Scattered Clouds,180,2013-08-31 17:58:00
2:58 PM,88.7,66.0,47,29.83,10.0,WSW,5.8,-,N/A,,Mostly Cloudy,240,2013-08-31 18:58:00
3:58 PM,88.3,68.2,51,29.82,10.0,West,8.1,-,N/A,,Overcast,280,2013-08-31 19:58:00
4:58 PM,86.5,69.4,57,29.79,10.0,West,3.5,-,N/A,,Overcast,270,2013-08-31 20:58:00
5:58 PM,82.0,68.4,63,29.82,10.0,NW,12.7,-,N/A,,Overcast,310,2013-08-31 21:58:00
6:45 PM,77.0,66.2,69,29.85,10.0,WNW,9.2,-,N/A,Rain,Light Rain,290,2013-08-31 22:45:00
6:57 PM,75.2,66.2,73,29.84,10.0,SW,9.2,-,N/A,,Overcast,230,2013-08-31 22:57:00
6:58 PM,75.6,66.6,74,29.85,10.0,SW,9.2,-,0.00,,Overcast,220,2013-08-31 22:58:00
7:06 PM,73.4,66.2,78,29.80,10.0,SSW,9.2,-,N/A,Rain,Light Rain,210,2013-08-31 23:06:00
7:39 PM,73.4,66.2,78,29.82,10.0,West,8.1,-,N/A,,Overcast,260,2013-08-31 23:39:00
7:58 PM,73.6,66.0,77,29.83,10.0,SE,3.5,-,0.00,,Overcast,140,2013-08-31 23:58:00
8:58 PM,71.8,67.3,86,29.83,10.0,SW,5.8,-,N/A,,Overcast,220,2013-09-01 00:58:00
9:58 PM,71.8,68.9,91,29.82,10.0,SSW,2.3,-,N/A,,Clear,210,2013-09-01 01:58:00
10:58 PM,72.0,69.1,91,29.82,10.0,North,2.3,-,N/A,,Mostly Cloudy,360,2013-09-01 02:58:00
11:58 PM,70.3,68.5,94,29.83,10.0,SE,5.8,-,N/A,,Partly Cloudy,140,2013-09-01 03:58:00